sensor_id;sensor_type;location;lat;lon;timestamp;pressure;altitude;pressure_sealevel;temperature;humidity
44992;BME280;56865;51.618;7.406;2023-04-05T00:01:55;101643.31;;;7.32;100.00
44992;BME280;56865;51.618;7.406;2023-04-05T00:04:26;101635.88;;;7.67;100.00
44992;BME280;56865;51.618;7.406;2023-04-05T00:07:00;101641.19;;;7.25;100.00
44992;BME280;56865;51.618;7.406;2023-04-05T00:09:36;101640.91;;;7.05;100.00
44992;BME280;56865;51.618;7.406;2023-04-05T00:12:06;101633.16;;;7.17;100.00
44992;BME280;56865;51.618;7.406;2023-04-05T00:14:36;101635.00;;;7.20;100.00
44992;BME280;56865;51.618;7.406;2023-04-05T00:17:05;101629.31;;;7.24;100.00
44992;BME280;56865;51.618;7.406;2023-04-05T00:19:37;101619.94;;;7.23;100.00
44992;BME280;56865;51.618;7.406;2023-04-05T00:22:08;101627.81;;;7.12;100.00
44992;BME280;56865;51.618;7.406;2023-04-05T00:24:41;101617.59;;;6.96;100.00
44992;BME280;56865;51.618;7.406;2023-04-05T00:27:11;101618.88;;;7.04;100.00
44992;BME280;56865;51.618;7.406;2023-04-05T00:29:41;101621.06;;;6.68;100.00
44992;BME280;56865;51.618;7.406;2023-04-05T00:32:11;101617.31;;;6.76;100.00
44992;BME280;56865;51.618;7.406;2023-04-05T00:34:41;101615.53;;;6.75;100.00
44992;BME280;56865;51.618;7.406;2023-04-05T00:37:11;101616.53;;;6.77;100.00
44992;BME280;56865;51.618;7.406;2023-04-05T00:39:47;101623.69;;;6.41;100.00
44992;BME280;56865;51.618;7.406;2023-04-05T00:42:19;101616.13;;;6.56;100.00
44992;BME280;56865;51.618;7.406;2023-04-05T00:44:49;101611.69;;;6.52;100.00
44992;BME280;56865;51.618;7.406;2023-04-05T00:47:18;101605.56;;;6.48;100.00
44992;BME280;56865;51.618;7.406;2023-04-05T00:49:48;101605.78;;;6.81;100.00
44992;BME280;56865;51.618;7.406;2023-04-05T00:52:18;101605.41;;;8.97;100.00
44992;BME280;56865;51.618;7.406;2023-04-05T00:54:51;101606.56;;;6.37;100.00
44992;BME280;56865;51.618;7.406;2023-04-05T00:57:22;101605.19;;;6.42;100.00
44992;BME280;56865;51.618;7.406;2023-04-05T00:59:52;101603.28;;;9.06;100.00
44992;BME280;56865;51.618;7.406;2023-04-05T01:02:23;101602.53;;;6.84;100.00
44992;BME280;56865;51.618;7.406;2023-04-05T01:04:57;101608.28;;;7.56;100.00
44992;BME280;56865;51.618;7.406;2023-04-05T01:07:30;101607.41;;;6.66;100.00
44992;BME280;56865;51.618;7.406;2023-04-05T01:10:03;101600.16;;;6.00;100.00
44992;BME280;56865;51.618;7.406;2023-04-05T01:12:33;101600.81;;;5.98;100.00
44992;BME280;56865;51.618;7.406;2023-04-05T01:15:04;101606.41;;;6.49;100.00
44992;BME280;56865;51.618;7.406;2023-04-05T01:17:34;101597.88;;;6.18;100.00
44992;BME280;56865;51.618;7.406;2023-04-05T01:20:05;101595.59;;;5.81;100.00
44992;BME280;56865;51.618;7.406;2023-04-05T01:28:16;101588.44;;;8.13;100.00
44992;BME280;56865;51.618;7.406;2023-04-05T01:30:50;101588.03;;;5.81;100.00
44992;BME280;56865;51.618;7.406;2023-04-05T01:33:22;101588.41;;;5.74;100.00
44992;BME280;56865;51.618;7.406;2023-04-05T01:35:57;101587.41;;;5.85;100.00
44992;BME280;56865;51.618;7.406;2023-04-05T01:38:28;101584.72;;;5.56;100.00
44992;BME280;56865;51.618;7.406;2023-04-05T01:40:58;101584.25;;;5.61;100.00
44992;BME280;56865;51.618;7.406;2023-04-05T01:43:28;101576.47;;;5.58;100.00
44992;BME280;56865;51.618;7.406;2023-04-05T01:46:00;101580.16;;;7.07;100.00
44992;BME280;56865;51.618;7.406;2023-04-05T01:48:30;101577.75;;;5.38;100.00
44992;BME280;56865;51.618;7.406;2023-04-05T01:50:59;101566.47;;;5.33;100.00
44992;BME280;56865;51.618;7.406;2023-04-05T01:53:29;101562.78;;;5.41;100.00
44992;BME280;56865;51.618;7.406;2023-04-05T01:55:59;101557.91;;;5.44;100.00
44992;BME280;56865;51.618;7.406;2023-04-05T01:58:29;101554.22;;;5.26;100.00
44992;BME280;56865;51.618;7.406;2023-04-05T02:01:02;101565.66;;;5.61;100.00
44992;BME280;56865;51.618;7.406;2023-04-05T02:03:31;101555.19;;;5.28;100.00
44992;BME280;56865;51.618;7.406;2023-04-05T02:06:01;101549.16;;;5.26;100.00
44992;BME280;56865;51.618;7.406;2023-04-05T02:08:31;101547.81;;;5.17;100.00
44992;BME280;56865;51.618;7.406;2023-04-05T02:11:01;101549.34;;;5.15;100.00
44992;BME280;56865;51.618;7.406;2023-04-05T02:13:30;101556.56;;;5.36;100.00
44992;BME280;56865;51.618;7.406;2023-04-05T02:16:03;101552.94;;;5.05;100.00
44992;BME280;56865;51.618;7.406;2023-04-05T02:18:32;101550.94;;;5.13;100.00
44992;BME280;56865;51.618;7.406;2023-04-05T02:21:04;101552.28;;;5.08;100.00
44992;BME280;56865;51.618;7.406;2023-04-05T02:23:36;101550.53;;;5.07;100.00
44992;BME280;56865;51.618;7.406;2023-04-05T02:26:06;101546.25;;;5.06;100.00
44992;BME280;56865;51.618;7.406;2023-04-05T02:28:35;101547.97;;;4.94;100.00
44992;BME280;56865;51.618;7.406;2023-04-05T02:31:10;101561.72;;;5.93;100.00
44992;BME280;56865;51.618;7.406;2023-04-05T02:33:47;101563.94;;;5.33;100.00
44992;BME280;56865;51.618;7.406;2023-04-05T02:36:17;101555.34;;;4.77;100.00
44992;BME280;56865;51.618;7.406;2023-04-05T02:38:47;101565.09;;;4.98;100.00
44992;BME280;56865;51.618;7.406;2023-04-05T02:41:17;101561.31;;;8.45;100.00
44992;BME280;56865;51.618;7.406;2023-04-05T02:43:48;101573.72;;;9.82;100.00
44992;BME280;56865;51.618;7.406;2023-04-05T02:46:20;101585.13;;;10.69;100.00
44992;BME280;56865;51.618;7.406;2023-04-05T02:48:50;101583.06;;;10.60;100.00
44992;BME280;56865;51.618;7.406;2023-04-05T02:51:20;101575.09;;;7.07;100.00
44992;BME280;56865;51.618;7.406;2023-04-05T02:53:49;101564.81;;;8.48;100.00
44992;BME280;56865;51.618;7.406;2023-04-05T02:56:19;101566.75;;;9.78;100.00
44992;BME280;56865;51.618;7.406;2023-04-05T02:58:49;101571.44;;;10.06;100.00
44992;BME280;56865;51.618;7.406;2023-04-05T03:01:21;101575.72;;;10.27;100.00
44992;BME280;56865;51.618;7.406;2023-04-05T03:03:51;101570.81;;;10.32;100.00
44992;BME280;56865;51.618;7.406;2023-04-05T03:06:21;101557.03;;;5.17;100.00
44992;BME280;56865;51.618;7.406;2023-04-05T03:08:52;101544.63;;;4.54;100.00
44992;BME280;56865;51.618;7.406;2023-04-05T03:11:22;101550.44;;;4.53;100.00
44992;BME280;56865;51.618;7.406;2023-04-05T03:13:51;101545.56;;;4.56;100.00
44992;BME280;56865;51.618;7.406;2023-04-05T03:16:24;101541.88;;;4.26;100.00
44992;BME280;56865;51.618;7.406;2023-04-05T03:18:54;101532.13;;;4.31;100.00
44992;BME280;56865;51.618;7.406;2023-04-05T03:21:24;101536.41;;;4.45;100.00
44992;BME280;56865;51.618;7.406;2023-04-05T03:23:55;101532.63;;;4.38;100.00
44992;BME280;56865;51.618;7.406;2023-04-05T03:26:25;101519.81;;;5.01;100.00
44992;BME280;56865;51.618;7.406;2023-04-05T03:28:55;101538.84;;;4.18;100.00
44992;BME280;56865;51.618;7.406;2023-04-05T03:31:27;101535.88;;;4.24;100.00
44992;BME280;56865;51.618;7.406;2023-04-05T03:33:57;101547.75;;;4.38;100.00
44992;BME280;56865;51.618;7.406;2023-04-05T03:36:27;101550.34;;;4.27;100.00
44992;BME280;56865;51.618;7.406;2023-04-05T03:39:08;101545.84;;;4.22;100.00
44992;BME280;56865;51.618;7.406;2023-04-05T03:41:37;101541.19;;;4.15;100.00
44992;BME280;56865;51.618;7.406;2023-04-05T03:44:07;101537.66;;;5.71;100.00
44992;BME280;56865;51.618;7.406;2023-04-05T03:46:40;101535.22;;;4.27;100.00
44992;BME280;56865;51.618;7.406;2023-04-05T03:49:11;101535.50;;;3.69;100.00
44992;BME280;56865;51.618;7.406;2023-04-05T03:51:42;101532.66;;;3.64;100.00
44992;BME280;56865;51.618;7.406;2023-04-05T03:54:12;101535.09;;;4.25;100.00
44992;BME280;56865;51.618;7.406;2023-04-05T03:56:42;101530.63;;;4.21;100.00
44992;BME280;56865;51.618;7.406;2023-04-05T03:59:11;101532.03;;;4.29;100.00
44992;BME280;56865;51.618;7.406;2023-04-05T04:01:44;101535.91;;;4.37;100.00
44992;BME280;56865;51.618;7.406;2023-04-05T04:04:14;101529.34;;;4.14;100.00
44992;BME280;56865;51.618;7.406;2023-04-05T04:06:43;101529.25;;;4.13;100.00
44992;BME280;56865;51.618;7.406;2023-04-05T04:09:13;101523.81;;;4.20;100.00
44992;BME280;56865;51.618;7.406;2023-04-05T04:11:42;101525.81;;;4.12;100.00
44992;BME280;56865;51.618;7.406;2023-04-05T04:14:12;101526.06;;;4.15;100.00
44992;BME280;56865;51.618;7.406;2023-04-05T04:16:44;101523.31;;;4.12;100.00
44992;BME280;56865;51.618;7.406;2023-04-05T04:19:15;101521.78;;;4.14;100.00
44992;BME280;56865;51.618;7.406;2023-04-05T04:21:45;101521.00;;;4.15;100.00
44992;BME280;56865;51.618;7.406;2023-04-05T04:24:18;101519.34;;;4.16;100.00
44992;BME280;56865;51.618;7.406;2023-04-05T04:26:47;101524.47;;;4.17;100.00
44992;BME280;56865;51.618;7.406;2023-04-05T04:29:20;101528.75;;;4.18;100.00
44992;BME280;56865;51.618;7.406;2023-04-05T04:32:01;101518.59;;;4.05;100.00
44992;BME280;56865;51.618;7.406;2023-04-05T04:34:32;101519.28;;;4.02;100.00
44992;BME280;56865;51.618;7.406;2023-04-05T04:37:02;101525.72;;;4.11;100.00
44992;BME280;56865;51.618;7.406;2023-04-05T04:39:33;101524.28;;;4.14;100.00
44992;BME280;56865;51.618;7.406;2023-04-05T04:42:05;101521.50;;;3.98;100.00
44992;BME280;56865;51.618;7.406;2023-04-05T04:44:36;101528.50;;;4.02;100.00
44992;BME280;56865;51.618;7.406;2023-04-05T04:47:10;101527.41;;;4.23;100.00
44992;BME280;56865;51.618;7.406;2023-04-05T04:49:42;101523.72;;;4.18;100.00
44992;BME280;56865;51.618;7.406;2023-04-05T04:52:12;101519.81;;;4.10;100.00
44992;BME280;56865;51.618;7.406;2023-04-05T04:54:42;101522.69;;;4.03;100.00
44992;BME280;56865;51.618;7.406;2023-04-05T04:57:12;101521.50;;;3.98;100.00
44992;BME280;56865;51.618;7.406;2023-04-05T04:59:42;101528.19;;;4.22;100.00
44992;BME280;56865;51.618;7.406;2023-04-05T05:02:14;101521.69;;;4.26;100.00
44992;BME280;56865;51.618;7.406;2023-04-05T05:04:44;101513.97;;;4.11;100.00
44992;BME280;56865;51.618;7.406;2023-04-05T05:07:15;101510.53;;;4.22;100.00
44992;BME280;56865;51.618;7.406;2023-04-05T05:09:45;101514.44;;;4.31;100.00
44992;BME280;56865;51.618;7.406;2023-04-05T05:12:18;101513.84;;;4.21;100.00
44992;BME280;56865;51.618;7.406;2023-04-05T05:14:49;101526.22;;;4.30;100.00
44992;BME280;56865;51.618;7.406;2023-04-05T05:17:21;101527.91;;;4.18;100.00
44992;BME280;56865;51.618;7.406;2023-04-05T05:19:52;101529.91;;;4.10;100.00
44992;BME280;56865;51.618;7.406;2023-04-05T05:22:21;101516.38;;;3.84;100.00
44992;BME280;56865;51.618;7.406;2023-04-05T05:24:51;101520.94;;;4.27;100.00
44992;BME280;56865;51.618;7.406;2023-04-05T05:27:21;101525.78;;;4.63;100.00
44992;BME280;56865;51.618;7.406;2023-04-05T05:29:51;101524.50;;;4.56;100.00
44992;BME280;56865;51.618;7.406;2023-04-05T05:32:24;101517.84;;;4.97;100.00
44992;BME280;56865;51.618;7.406;2023-04-05T05:34:53;101535.34;;;5.34;100.00
44992;BME280;56865;51.618;7.406;2023-04-05T05:37:27;101528.97;;;4.47;100.00
44992;BME280;56865;51.618;7.406;2023-04-05T05:39:58;101531.34;;;4.70;100.00
44992;BME280;56865;51.618;7.406;2023-04-05T05:42:30;101525.31;;;4.68;100.00
44992;BME280;56865;51.618;7.406;2023-04-05T05:45:03;101530.56;;;4.71;100.00
44992;BME280;56865;51.618;7.406;2023-04-05T05:47:36;101530.25;;;5.74;100.00
44992;BME280;56865;51.618;7.406;2023-04-05T05:50:06;101525.63;;;4.73;100.00
44992;BME280;56865;51.618;7.406;2023-04-05T05:52:36;101525.34;;;4.95;100.00
44992;BME280;56865;51.618;7.406;2023-04-05T05:55:06;101526.41;;;4.99;100.00
44992;BME280;56865;51.618;7.406;2023-04-05T05:57:36;101522.75;;;5.07;100.00
44992;BME280;56865;51.618;7.406;2023-04-05T06:00:06;101536.31;;;5.49;100.00
44992;BME280;56865;51.618;7.406;2023-04-05T06:02:40;101526.78;;;5.45;100.00
44992;BME280;56865;51.618;7.406;2023-04-05T06:05:09;101523.81;;;5.66;100.00
44992;BME280;56865;51.618;7.406;2023-04-05T06:07:39;101528.00;;;5.79;100.00
44992;BME280;56865;51.618;7.406;2023-04-05T06:10:09;101529.16;;;6.12;100.00
44992;BME280;56865;51.618;7.406;2023-04-05T06:12:40;101518.63;;;6.20;100.00
44992;BME280;56865;51.618;7.406;2023-04-05T06:15:10;101516.97;;;6.35;100.00
44992;BME280;56865;51.618;7.406;2023-04-05T06:17:42;101524.09;;;6.56;100.00
44992;BME280;56865;51.618;7.406;2023-04-05T06:20:12;101521.44;;;6.84;100.00
44992;BME280;56865;51.618;7.406;2023-04-05T06:22:42;101523.09;;;7.13;100.00
44992;BME280;56865;51.618;7.406;2023-04-05T06:25:21;101526.81;;;7.35;100.00
44992;BME280;56865;51.618;7.406;2023-04-05T06:27:51;101537.41;;;8.42;100.00
44992;BME280;56865;51.618;7.406;2023-04-05T06:30:21;101522.38;;;7.95;100.00
44992;BME280;56865;51.618;7.406;2023-04-05T06:32:53;101529.41;;;8.01;100.00
44992;BME280;56865;51.618;7.406;2023-04-05T06:35:23;101528.38;;;9.18;100.00
44992;BME280;56865;51.618;7.406;2023-04-05T06:37:52;101521.94;;;8.37;100.00
44992;BME280;56865;51.618;7.406;2023-04-05T06:40:22;101529.25;;;8.48;100.00
44992;BME280;56865;51.618;7.406;2023-04-05T06:42:52;101532.06;;;8.70;100.00
44992;BME280;56865;51.618;7.406;2023-04-05T06:45:23;101536.34;;;8.71;100.00
44992;BME280;56865;51.618;7.406;2023-04-05T06:47:55;101527.59;;;9.01;100.00
44992;BME280;56865;51.618;7.406;2023-04-05T06:50:27;101531.00;;;9.19;100.00
44992;BME280;56865;51.618;7.406;2023-04-05T06:52:57;101531.78;;;9.36;100.00
44992;BME280;56865;51.618;7.406;2023-04-05T06:55:27;101534.47;;;9.57;100.00
44992;BME280;56865;51.618;7.406;2023-04-05T06:57:57;101532.78;;;9.58;100.00
44992;BME280;56865;51.618;7.406;2023-04-05T07:00:27;101533.88;;;9.83;100.00
44992;BME280;56865;51.618;7.406;2023-04-05T07:02:59;101530.47;;;11.04;100.00
44992;BME280;56865;51.618;7.406;2023-04-05T07:05:29;101521.78;;;10.57;100.00
44992;BME280;56865;51.618;7.406;2023-04-05T07:07:59;101529.63;;;10.62;100.00
44992;BME280;56865;51.618;7.406;2023-04-05T07:10:29;101535.69;;;10.65;100.00
44992;BME280;56865;51.618;7.406;2023-04-05T07:12:58;101537.59;;;10.69;100.00
44992;BME280;56865;51.618;7.406;2023-04-05T07:15:28;101528.19;;;11.33;100.00
44992;BME280;56865;51.618;7.406;2023-04-05T07:18:00;101533.59;;;10.97;100.00
44992;BME280;56865;51.618;7.406;2023-04-05T07:20:30;101533.94;;;11.06;100.00
44992;BME280;56865;51.618;7.406;2023-04-05T07:23:01;101527.81;;;11.24;100.00
44992;BME280;56865;51.618;7.406;2023-04-05T07:25:35;101528.56;;;11.67;100.00
44992;BME280;56865;51.618;7.406;2023-04-05T07:28:09;101524.41;;;11.46;100.00
44992;BME280;56865;51.618;7.406;2023-04-05T07:30:39;101529.31;;;11.64;100.00
44992;BME280;56865;51.618;7.406;2023-04-05T07:33:15;101523.50;;;11.91;100.00
44992;BME280;56865;51.618;7.406;2023-04-05T07:35:45;101519.84;;;12.09;100.00
44992;BME280;56865;51.618;7.406;2023-04-05T07:40:58;101525.22;;;12.41;100.00
44992;BME280;56865;51.618;7.406;2023-04-05T07:43:30;101522.03;;;12.22;100.00
44992;BME280;56865;51.618;7.406;2023-04-05T07:46:05;101517.59;;;12.42;100.00
44992;BME280;56865;51.618;7.406;2023-04-05T07:48:38;101517.75;;;12.47;100.00
44992;BME280;56865;51.618;7.406;2023-04-05T07:51:08;101517.66;;;12.70;100.00
44992;BME280;56865;51.618;7.406;2023-04-05T07:53:38;101522.84;;;12.21;100.00
44992;BME280;56865;51.618;7.406;2023-04-05T07:56:11;101524.75;;;12.52;100.00
44992;BME280;56865;51.618;7.406;2023-04-05T07:58:43;101517.47;;;12.91;100.00
44992;BME280;56865;51.618;7.406;2023-04-05T08:01:14;101523.94;;;12.79;100.00
44992;BME280;56865;51.618;7.406;2023-04-05T08:03:46;101522.81;;;12.98;100.00
44992;BME280;56865;51.618;7.406;2023-04-05T08:06:16;101529.09;;;13.08;100.00
44992;BME280;56865;51.618;7.406;2023-04-05T08:08:46;101522.47;;;13.15;100.00
44992;BME280;56865;51.618;7.406;2023-04-05T08:11:20;101525.28;;;13.52;100.00
44992;BME280;56865;51.618;7.406;2023-04-05T08:13:51;101529.91;;;13.35;100.00
44992;BME280;56865;51.618;7.406;2023-04-05T08:16:26;101533.53;;;13.41;100.00
44992;BME280;56865;51.618;7.406;2023-04-05T08:18:58;101531.94;;;13.45;100.00
44992;BME280;56865;51.618;7.406;2023-04-05T08:21:30;101526.88;;;13.48;100.00
44992;BME280;56865;51.618;7.406;2023-04-05T08:24:01;101528.63;;;13.49;100.00
44992;BME280;56865;51.618;7.406;2023-04-05T08:26:32;101530.19;;;13.16;100.00
44992;BME280;56865;51.618;7.406;2023-04-05T08:29:01;101526.50;;;13.36;98.01
44992;BME280;56865;51.618;7.406;2023-04-05T08:31:31;101525.91;;;13.43;97.28
44992;BME280;56865;51.618;7.406;2023-04-05T08:34:06;101525.72;;;13.67;98.30
44992;BME280;56865;51.618;7.406;2023-04-05T08:36:36;101511.59;;;13.80;100.00
44992;BME280;56865;51.618;7.406;2023-04-05T08:39:06;101516.16;;;13.60;100.00
44992;BME280;56865;51.618;7.406;2023-04-05T08:41:44;101509.84;;;13.79;100.00
44992;BME280;56865;51.618;7.406;2023-04-05T08:44:17;101523.22;;;13.69;100.00
44992;BME280;56865;51.618;7.406;2023-04-05T08:46:50;101516.72;;;14.12;100.00
44992;BME280;56865;51.618;7.406;2023-04-05T08:49:23;101516.31;;;13.96;100.00
44992;BME280;56865;51.618;7.406;2023-04-05T08:51:53;101504.66;;;14.08;100.00
44992;BME280;56865;51.618;7.406;2023-04-05T08:54:25;101509.50;;;14.30;100.00
44992;BME280;56865;51.618;7.406;2023-04-05T08:56:55;101513.34;;;14.46;99.30
44992;BME280;56865;51.618;7.406;2023-04-05T08:59:27;101520.72;;;14.02;90.71
44992;BME280;56865;51.618;7.406;2023-04-05T09:01:58;101507.75;;;14.98;100.00
44992;BME280;56865;51.618;7.406;2023-04-05T09:04:31;101506.00;;;14.62;99.15
44992;BME280;56865;51.618;7.406;2023-04-05T09:07:05;101510.44;;;14.68;97.31
44992;BME280;56865;51.618;7.406;2023-04-05T09:09:36;101510.03;;;14.52;94.88
44992;BME280;56865;51.618;7.406;2023-04-05T09:12:07;101518.41;;;14.45;93.12
44992;BME280;56865;51.618;7.406;2023-04-05T09:14:40;101506.00;;;14.62;96.39
44992;BME280;56865;51.618;7.406;2023-04-05T09:17:11;101520.91;;;16.44;83.23
44992;BME280;56865;51.618;7.406;2023-04-05T09:19:44;101508.16;;;14.80;94.32
44992;BME280;56865;51.618;7.406;2023-04-05T10:35:44;101482.38;;;17.73;70.11
44992;BME280;56865;51.618;7.406;2023-04-05T10:38:21;101482.56;;;17.93;72.63
44992;BME280;56865;51.618;7.406;2023-04-05T10:41:00;101480.72;;;17.81;67.19
44992;BME280;56865;51.618;7.406;2023-04-05T10:43:38;101476.25;;;17.64;67.25
44992;BME280;56865;51.618;7.406;2023-04-05T10:46:09;101471.59;;;18.09;71.56
44992;BME280;56865;51.618;7.406;2023-04-05T10:48:43;101472.53;;;18.21;72.96
44992;BME280;56865;51.618;7.406;2023-04-05T10:51:20;101472.50;;;18.14;65.79
44992;BME280;56865;51.618;7.406;2023-04-05T10:54:06;101464.91;;;18.31;72.07
44992;BME280;56865;51.618;7.406;2023-04-05T10:56:36;101467.66;;;18.51;63.67
44992;BME280;56865;51.618;7.406;2023-04-05T10:59:08;101466.66;;;18.34;60.82
44992;BME280;56865;51.618;7.406;2023-04-05T11:01:40;101469.84;;;19.30;68.83
44992;BME280;56865;51.618;7.406;2023-04-05T11:04:12;101459.59;;;19.73;72.47
44992;BME280;56865;51.618;7.406;2023-04-05T11:09:28;101460.47;;;19.71;67.19
44992;BME280;56865;51.618;7.406;2023-04-05T11:12:01;101470.84;;;19.81;59.49
44992;BME280;56865;51.618;7.406;2023-04-05T11:14:37;101469.94;;;19.64;57.85
44992;BME280;56865;51.618;7.406;2023-04-05T11:20:00;101462.09;;;19.39;57.15
44992;BME280;56865;51.618;7.406;2023-04-05T11:22:45;101457.13;;;20.37;62.26
44992;BME280;56865;51.618;7.406;2023-04-05T11:28:14;101443.25;;;20.70;66.23
44992;BME280;56865;51.618;7.406;2023-04-05T11:30:57;101452.78;;;20.43;55.17
44992;BME280;56865;51.618;7.406;2023-04-05T11:33:55;101447.59;;;20.54;58.77
44992;BME280;56865;51.618;7.406;2023-04-05T11:36:37;101447.59;;;20.51;52.79
44992;BME280;56865;51.618;7.406;2023-04-05T11:42:02;101442.13;;;21.49;57.98
44992;BME280;56865;51.618;7.406;2023-04-05T11:44:40;101448.84;;;21.82;56.67
44992;BME280;56865;51.618;7.406;2023-04-05T11:47:11;101438.47;;;21.84;57.19
44992;BME280;56865;51.618;7.406;2023-04-05T11:49:41;101441.03;;;21.90;60.21
44992;BME280;56865;51.618;7.406;2023-04-05T11:52:14;101429.50;;;22.25;64.78
44992;BME280;56865;51.618;7.406;2023-04-05T11:54:44;101426.31;;;21.89;52.03
44992;BME280;56865;51.618;7.406;2023-04-05T11:57:20;101430.59;;;21.95;48.75
44992;BME280;56865;51.618;7.406;2023-04-05T11:59:51;101422.47;;;22.38;56.58
44992;BME280;56865;51.618;7.406;2023-04-05T12:02:24;101429.81;;;21.86;48.82
44992;BME280;56865;51.618;7.406;2023-04-05T12:04:54;101426.00;;;23.10;60.65
44992;BME280;56865;51.618;7.406;2023-04-05T12:07:25;101423.56;;;22.99;60.33
44992;BME280;56865;51.618;7.406;2023-04-05T12:09:58;101426.53;;;22.64;52.36
44992;BME280;56865;51.618;7.406;2023-04-05T12:12:42;101417.94;;;23.33;55.87
44992;BME280;56865;51.618;7.406;2023-04-05T12:15:14;101415.53;;;22.34;44.83
44992;BME280;56865;51.618;7.406;2023-04-05T12:17:45;101412.78;;;22.52;48.35
44992;BME280;56865;51.618;7.406;2023-04-05T12:20:15;101407.03;;;23.00;50.23
44992;BME280;56865;51.618;7.406;2023-04-05T12:22:46;101411.84;;;22.61;45.56
44992;BME280;56865;51.618;7.406;2023-04-05T12:25:17;101405.88;;;21.33;48.52
44992;BME280;56865;51.618;7.406;2023-04-05T12:27:50;101396.88;;;21.93;47.77
44992;BME280;56865;51.618;7.406;2023-04-05T12:30:20;101402.41;;;21.34;43.63
44992;BME280;56865;51.618;7.406;2023-04-05T12:32:50;101404.97;;;21.45;47.61
44992;BME280;56865;51.618;7.406;2023-04-05T12:35:21;101397.97;;;21.59;42.14
44992;BME280;56865;51.618;7.406;2023-04-05T12:37:57;101406.34;;;21.97;47.88
44992;BME280;56865;51.618;7.406;2023-04-05T12:40:27;101397.47;;;22.24;49.91
44992;BME280;56865;51.618;7.406;2023-04-05T12:43:04;101392.22;;;22.31;51.37
44992;BME280;56865;51.618;7.406;2023-04-05T12:45:36;101391.34;;;22.29;47.91
44992;BME280;56865;51.618;7.406;2023-04-05T12:48:11;101398.84;;;21.62;42.95
44992;BME280;56865;51.618;7.406;2023-04-05T12:50:41;101385.84;;;21.65;43.37
44992;BME280;56865;51.618;7.406;2023-04-05T12:53:14;101378.53;;;22.13;49.55
44992;BME280;56865;51.618;7.406;2023-04-05T12:55:51;101375.34;;;21.77;48.18
44992;BME280;56865;51.618;7.406;2023-04-05T12:58:31;101377.97;;;22.69;55.80
44992;BME280;56865;51.618;7.406;2023-04-05T13:01:02;101384.56;;;22.17;46.55
44992;BME280;56865;51.618;7.406;2023-04-05T13:03:31;101373.31;;;22.94;56.96
44992;BME280;56865;51.618;7.406;2023-04-05T13:06:01;101384.09;;;22.63;48.54
44992;BME280;56865;51.618;7.406;2023-04-05T13:08:31;101370.56;;;23.08;56.95
44992;BME280;56865;51.618;7.406;2023-04-05T13:11:01;101379.66;;;22.71;46.51
44992;BME280;56865;51.618;7.406;2023-04-05T13:13:33;101373.28;;;22.19;45.46
44992;BME280;56865;51.618;7.406;2023-04-05T13:16:02;101372.09;;;21.47;41.25
44992;BME280;56865;51.618;7.406;2023-04-05T13:18:32;101365.00;;;22.67;49.83
44992;BME280;56865;51.618;7.406;2023-04-05T13:21:02;101361.53;;;22.68;46.55
44992;BME280;56865;51.618;7.406;2023-04-05T13:23:33;101355.47;;;21.78;40.16
44992;BME280;56865;51.618;7.406;2023-04-05T13:26:06;101351.28;;;22.56;48.33
44992;BME280;56865;51.618;7.406;2023-04-05T13:28:39;101347.69;;;22.66;45.26
44992;BME280;56865;51.618;7.406;2023-04-05T13:31:08;101349.75;;;23.08;51.92
44992;BME280;56865;51.618;7.406;2023-04-05T13:33:40;101349.22;;;22.81;43.34
44992;BME280;56865;51.618;7.406;2023-04-05T13:36:10;101335.03;;;23.07;48.07
44992;BME280;56865;51.618;7.406;2023-04-05T13:38:40;101336.66;;;22.46;40.35
44992;BME280;56865;51.618;7.406;2023-04-05T13:41:10;101329.56;;;23.27;52.37
44992;BME280;56865;51.618;7.406;2023-04-05T13:43:44;101335.75;;;23.20;45.49
44992;BME280;56865;51.618;7.406;2023-04-05T13:46:13;101328.03;;;22.44;41.73
44992;BME280;56865;51.618;7.406;2023-04-05T13:48:43;101329.28;;;22.83;45.92
44992;BME280;56865;51.618;7.406;2023-04-05T13:51:13;101320.44;;;22.22;43.30
44992;BME280;56865;51.618;7.406;2023-04-05T13:53:42;101313.63;;;22.08;44.63
44992;BME280;56865;51.618;7.406;2023-04-05T13:56:12;101315.84;;;21.51;40.43
44992;BME280;56865;51.618;7.406;2023-04-05T13:58:44;101311.56;;;21.50;48.94
44992;BME280;56865;51.618;7.406;2023-04-05T14:01:14;101313.81;;;21.93;42.83
44992;BME280;56865;51.618;7.406;2023-04-05T14:03:43;101308.16;;;21.40;41.79
44992;BME280;56865;51.618;7.406;2023-04-05T14:06:13;101311.56;;;21.50;42.11
44992;BME280;56865;51.618;7.406;2023-04-05T14:08:43;101305.41;;;21.65;44.12
44992;BME280;56865;51.618;7.406;2023-04-05T14:11:13;101293.38;;;21.48;47.88
44992;BME280;56865;51.618;7.406;2023-04-05T14:13:45;101293.41;;;21.47;47.40
44992;BME280;56865;51.618;7.406;2023-04-05T14:16:15;101288.34;;;21.31;44.75
44992;BME280;56865;51.618;7.406;2023-04-05T14:18:49;101293.72;;;21.03;44.49
44992;BME280;56865;51.618;7.406;2023-04-05T14:21:32;101289.34;;;21.13;43.62
44992;BME280;56865;51.618;7.406;2023-04-05T14:24:07;101292.09;;;20.84;43.14
44992;BME280;56865;51.618;7.406;2023-04-05T14:26:38;101279.50;;;21.60;59.66
44992;BME280;56865;51.618;7.406;2023-04-05T14:29:13;101281.91;;;21.82;53.38
44992;BME280;56865;51.618;7.406;2023-04-05T14:31:53;101271.19;;;21.13;48.38
44992;BME280;56865;51.618;7.406;2023-04-05T14:34:39;101277.22;;;21.15;45.63
44992;BME280;56865;51.618;7.406;2023-04-05T14:37:17;101269.47;;;21.09;44.34
44992;BME280;56865;51.618;7.406;2023-04-05T14:39:54;101266.81;;;21.21;50.85
44992;BME280;56865;51.618;7.406;2023-04-05T14:42:37;101268.78;;;20.82;46.50
44992;BME280;56865;51.618;7.406;2023-04-05T14:45:20;101259.81;;;21.31;54.88